createdAt,value
2022-12-27T02:31:24.029Z,1.67
2022-12-27T02:37:01.717Z,2.92
2022-12-27T02:39:54.808Z,1.85
2022-12-27T02:42:55.942Z,2.47
2022-12-27T02:45:51.599Z,3.15
2022-12-27T02:48:56.302Z,1.77
2022-12-27T02:54:25.131Z,3.70
2022-12-27T02:57:20.954Z,2.38
2022-12-27T03:00:29.773Z,2.83
2022-12-27T03:03:27.150Z,1.75
2022-12-27T03:06:33.815Z,2.17
2022-12-27T03:09:08.009Z,2.60
2022-12-27T03:11:57.527Z,2.28
2022-12-27T03:14:45.938Z,2.63
2022-12-27T03:17:16.413Z,2.50
2022-12-27T03:20:04.644Z,2.10
2022-12-27T03:22:55.045Z,2.30
2022-12-27T03:25:30.298Z,3.22
2022-12-27T03:28:20.965Z,4.65
2022-12-27T03:31:10.088Z,5.72
2022-12-27T03:33:40.405Z,1.45
2022-12-27T03:36:29.864Z,2.13
2022-12-27T03:39:04.308Z,3.95
2022-12-27T03:41:54.881Z,3.50
2022-12-27T03:44:26.729Z,2.90
2022-12-27T03:46:56.600Z,2.80
2022-12-27T03:49:34.780Z,3.53
2022-12-27T03:52:08.197Z,2.88
2022-12-27T03:54:39.656Z,2.85
2022-12-27T03:57:10.236Z,1.52
2022-12-27T03:59:39.027Z,3.42
2022-12-27T04:02:08.129Z,3.53
2022-12-27T04:04:36.944Z,3.58
2022-12-27T04:07:08.528Z,3.40
2022-12-27T04:09:56.035Z,2.50
2022-12-27T04:12:42.219Z,2.08
2022-12-27T04:15:31.060Z,2.30
2022-12-27T04:18:17.215Z,3.95
2022-12-27T04:21:03.152Z,2.28
2022-12-27T04:23:49.335Z,3.25
2022-12-27T04:26:36.632Z,2.60
2022-12-27T04:29:22.767Z,3.17
2022-12-27T04:32:10.707Z,1.90
2022-12-27T04:34:58.120Z,4.60
2022-12-27T04:37:26.895Z,3.63
2022-12-27T04:40:09.368Z,3.65
2022-12-27T04:43:03.943Z,1.25
2022-12-27T04:46:01.840Z,1.75
2022-12-27T04:48:49.079Z,1.42
2022-12-27T04:51:37.378Z,2.58
2022-12-27T04:54:25.618Z,1.45
2022-12-27T04:56:54.358Z,4.50
2022-12-27T04:59:43.230Z,2.67
2022-12-27T05:02:12.018Z,3.72
2022-12-27T05:04:41.013Z,3.30
2022-12-27T05:07:28.872Z,2.20
2022-12-27T05:10:15.473Z,2.45
2022-12-27T05:13:01.382Z,3.65
2022-12-27T05:15:35.127Z,2.22
2022-12-27T05:20:35.704Z,3.33
2022-12-27T05:23:21.821Z,3.75
2022-12-27T05:25:52.151Z,2.55
2022-12-27T05:28:20.708Z,3.05
2022-12-27T05:30:52.150Z,2.50
2022-12-27T05:33:21.556Z,1.75
2022-12-27T05:35:50.095Z,2.88
2022-12-27T05:38:19.976Z,3.85
2022-12-27T05:40:48.771Z,4.20
2022-12-27T05:43:17.500Z,10.20
2022-12-27T05:45:48.390Z,4.18
2022-12-27T05:48:18.455Z,3.50
2022-12-27T05:50:47.210Z,2.78
2022-12-27T05:53:15.990Z,5.47
2022-12-27T05:55:44.889Z,2.75
2022-12-27T05:58:13.508Z,3.03
2022-12-27T06:00:42.670Z,5.07
2022-12-27T06:03:13.164Z,3.15
2022-12-27T06:05:43.462Z,4.40
2022-12-27T06:08:14.308Z,3.38
2022-12-27T06:10:45.626Z,2.58
2022-12-27T06:13:15.726Z,2.88
2022-12-27T06:15:44.508Z,3.45
2022-12-27T06:18:13.223Z,3.47
2022-12-27T06:20:45.233Z,1.92
2022-12-27T06:23:13.772Z,2.17
2022-12-27T06:25:43.796Z,2.90
2022-12-27T06:28:14.188Z,3.92
2022-12-27T06:30:47.519Z,3.42
2022-12-27T06:33:18.166Z,1.63
2022-12-27T06:35:52.362Z,3.28
2022-12-27T06:38:21.117Z,3.60
2022-12-27T06:40:50.012Z,4.22
2022-12-27T06:43:24.393Z,14.07
2022-12-27T06:46:04.383Z,4.00
2022-12-27T06:48:38.130Z,3.40
2022-12-27T06:53:56.482Z,4.88
2022-12-27T06:56:30.629Z,5.63
2022-12-27T06:59:04.254Z,2.50
2022-12-27T07:01:34.304Z,2.75
2022-12-27T07:04:14.275Z,2.38
2022-12-27T07:06:42.994Z,3.03
2022-12-27T07:09:15.403Z,2.95
2022-12-27T07:11:44.270Z,2.58
2022-12-27T07:14:17.416Z,5.72
2022-12-27T07:16:46.324Z,7.05
2022-12-27T07:19:19.192Z,4.57
2022-12-27T07:21:47.972Z,4.73
2022-12-27T07:24:21.100Z,2.78
2022-12-27T07:26:57.614Z,1.70
2022-12-27T07:29:33.468Z,4.43
2022-12-27T07:32:05.339Z,3.97
2022-12-27T07:34:34.215Z,4.72
2022-12-27T07:37:06.646Z,4.30
2022-12-27T07:39:39.730Z,4.75
2022-12-27T07:42:14.273Z,5.50
2022-12-27T07:44:43.168Z,5.28
2022-12-27T07:47:15.756Z,6.53
2022-12-27T07:49:47.649Z,4.50
2022-12-27T07:52:16.109Z,4.15
2022-12-27T07:54:45.917Z,4.57
2022-12-27T07:57:14.352Z,4.68
2022-12-27T07:59:42.752Z,3.22
2022-12-27T08:02:11.407Z,4.28
2022-12-27T08:04:39.915Z,6.05
2022-12-27T08:07:10.338Z,6.22
2022-12-27T08:09:39.752Z,4.80
2022-12-27T08:12:20.576Z,4.93
2022-12-27T08:14:49.010Z,5.07
2022-12-27T08:17:20.396Z,4.30
2022-12-27T08:19:48.825Z,7.80
2022-12-27T08:22:17.901Z,5.15
2022-12-27T08:24:46.453Z,5.55
2022-12-27T08:27:21.502Z,4.78
2022-12-27T08:29:50.191Z,5.03
2022-12-27T08:32:47.049Z,5.53
2022-12-27T08:35:50.743Z,6.03
2022-12-27T08:38:04.962Z,5.15
2022-12-27T08:40:33.410Z,5.00
2022-12-27T08:43:03.256Z,7.25
2022-12-27T08:45:31.845Z,4.95
2022-12-27T08:48:00.927Z,5.72
2022-12-27T08:50:30.024Z,5.93
2022-12-27T08:52:59.202Z,7.30
2022-12-27T08:55:28.094Z,6.07
2022-12-27T08:57:58.829Z,4.55
2022-12-27T09:00:29.346Z,3.80
2022-12-27T09:02:58.227Z,6.32
2022-12-27T09:05:34.156Z,6.95
2022-12-27T09:08:07.289Z,5.18
2022-12-27T09:10:41.269Z,5.95
2022-12-27T09:13:16.797Z,5.32
2022-12-27T09:15:56.997Z,5.80
2022-12-27T09:19:12.338Z,7.00
2022-12-27T09:21:47.020Z,4.63
2022-12-27T09:24:25.043Z,7.55
2022-12-27T09:26:58.163Z,5.68
2022-12-27T09:29:26.958Z,5.78
2022-12-27T09:32:02.775Z,3.47
2022-12-27T09:34:33.395Z,4.47
2022-12-27T09:37:02.028Z,5.90
2022-12-27T09:39:42.878Z,4.63
2022-12-27T09:42:52.172Z,5.70
2022-12-27T09:45:33.829Z,5.30
2022-12-27T09:48:15.867Z,5.32
2022-12-27T09:50:53.999Z,4.07
2022-12-27T09:53:43.433Z,6.53
2022-12-27T09:56:18.890Z,5.63
2022-12-27T09:58:50.303Z,5.95
2022-12-27T10:01:30.662Z,6.35
2022-12-27T10:04:08.486Z,3.90
2022-12-27T10:07:02.994Z,5.70
2022-12-27T10:09:42.684Z,8.07
2022-12-27T10:12:24.366Z,5.10
2022-12-27T10:15:08.214Z,4.78
2022-12-27T10:17:52.878Z,5.00
2022-12-27T10:20:32.280Z,8.20
2022-12-27T10:23:07.927Z,5.00
2022-12-27T10:25:37.773Z,7.32
2022-12-27T10:28:17.314Z,6.70
2022-12-27T10:30:46.735Z,7.15
2022-12-27T10:33:20.494Z,6.93
2022-12-27T10:38:27.527Z,4.00
2022-12-27T10:41:02.187Z,3.85
2022-12-27T10:43:35.774Z,5.43
2022-12-27T10:46:15.307Z,4.85
2022-12-27T10:49:20.293Z,5.82
2022-12-27T10:51:45.566Z,5.18
2022-12-27T10:54:17.061Z,4.75
2022-12-27T10:56:50.562Z,6.35
2022-12-27T10:59:20.365Z,3.95
2022-12-27T11:01:52.368Z,4.70
2022-12-27T11:04:22.434Z,4.30
2022-12-27T11:06:52.884Z,2.80
2022-12-27T11:09:29.507Z,4.82
2022-12-27T11:12:15.069Z,3.88
2022-12-27T11:14:57.495Z,3.60
2022-12-27T11:17:28.255Z,6.75
2022-12-27T11:20:00.833Z,5.25
2022-12-27T11:25:54.440Z,3.58
2022-12-27T11:28:46.523Z,4.53
2022-12-27T11:31:42.108Z,5.00
2022-12-27T11:34:34.185Z,3.65
2022-12-27T11:37:07.624Z,5.00
2022-12-27T11:39:43.107Z,4.45
2022-12-27T11:42:19.605Z,3.70
2022-12-27T11:44:55.027Z,6.97
2022-12-27T11:47:31.631Z,5.75
2022-12-27T11:50:08.345Z,6.63
2022-12-27T11:52:43.943Z,3.65
2022-12-27T11:55:26.166Z,5.80
2022-12-27T11:58:14.285Z,9.60
2022-12-27T12:00:50.709Z,3.47
2022-12-27T12:03:41.802Z,4.00
2022-12-27T12:06:21.000Z,6.03
2022-12-27T12:09:15.155Z,5.20
2022-12-27T12:11:57.106Z,6.65
2022-12-27T12:14:36.623Z,5.72
2022-12-27T12:17:11.446Z,4.55
2022-12-27T12:19:56.542Z,5.45
2022-12-27T12:22:36.316Z,4.82
2022-12-27T12:25:32.300Z,4.72
2022-12-27T12:28:38.808Z,3.70
2022-12-27T12:31:27.846Z,5.47
2022-12-27T12:34:16.922Z,4.03
2022-12-27T12:37:23.450Z,7.40
2022-12-27T12:44:01.428Z,6.90
2022-12-27T12:46:51.670Z,5.05
2022-12-27T12:49:44.610Z,5.53
2022-12-27T12:53:08.929Z,8.98
2022-12-27T12:56:07.183Z,6.80
2022-12-27T12:58:46.424Z,4.40
2022-12-27T13:01:57.459Z,5.40
2022-12-27T13:04:49.295Z,4.88
2022-12-27T13:07:43.528Z,3.75
2022-12-27T13:10:33.255Z,5.25
2022-12-27T13:13:06.530Z,5.32
2022-12-27T13:15:55.468Z,6.57
2022-12-27T13:18:30.721Z,6.63
2022-12-27T13:21:16.213Z,3.50
2022-12-27T13:28:08.984Z,3.53
2022-12-27T13:30:24.600Z,4.03
2022-12-27T13:36:12.581Z,4.30
2022-12-27T13:39:09.455Z,6.60
2022-12-27T13:42:05.702Z,5.22
2022-12-27T13:45:11.602Z,6.57
2022-12-27T13:48:08.040Z,3.35
2022-12-27T13:50:57.121Z,3.35
2022-12-27T13:53:47.931Z,4.68
2022-12-27T13:56:55.371Z,3.00
2022-12-27T13:59:45.050Z,5.15
2022-12-27T14:02:34.624Z,4.68
2022-12-27T14:05:21.091Z,8.18
2022-12-27T14:07:54.119Z,5.97
2022-12-27T14:10:31.157Z,6.28
2022-12-27T14:13:26.599Z,5.97
2022-12-27T14:16:59.687Z,3.75
2022-12-27T14:20:07.861Z,4.28
2022-12-27T14:23:19.228Z,3.67
2022-12-27T14:26:30.502Z,4.80
2022-12-27T14:33:20.350Z,4.13
2022-12-27T14:36:35.228Z,4.80
2022-12-27T14:39:19.409Z,7.30
2022-12-27T14:47:37.676Z,5.32
2022-12-27T14:50:38.013Z,4.40
2022-12-27T14:53:48.655Z,4.78
2022-12-27T14:56:23.728Z,4.13
2022-12-27T15:02:30.603Z,4.82
2022-12-27T15:05:09.686Z,4.10
2022-12-27T15:07:56.061Z,4.82
2022-12-27T15:10:45.031Z,4.50
2022-12-27T15:13:30.074Z,4.95
2022-12-27T15:16:04.087Z,3.92
2022-12-27T15:18:43.766Z,3.78
2022-12-27T15:21:20.394Z,7.13
2022-12-27T15:24:10.587Z,7.50
2022-12-27T15:26:50.290Z,13.18
2022-12-27T15:29:28.746Z,10.77
2022-12-27T15:35:43.721Z,6.75
2022-12-27T15:38:23.116Z,5.13
2022-12-27T15:45:02.463Z,6.78
2022-12-27T15:47:54.122Z,8.43
2022-12-27T15:50:31.662Z,5.97
2022-12-27T15:57:43.647Z,4.00
2022-12-27T16:00:46.992Z,5.22
2022-12-27T16:03:47.733Z,7.93
2022-12-27T16:10:05.478Z,9.43
2022-12-27T16:12:38.898Z,13.25
2022-12-27T16:15:38.813Z,13.32
2022-12-27T16:18:35.414Z,9.27
2022-12-27T16:34:38.902Z,5.82
2022-12-27T16:37:45.835Z,4.47
2022-12-27T16:48:21.085Z,6.40
2022-12-27T17:45:15.079Z,19.48
2022-12-27T17:48:02.890Z,9.23
2022-12-27T17:50:34.077Z,7.95
2022-12-27T17:53:40.970Z,14.20
2022-12-27T17:56:37.234Z,3.72
2022-12-27T17:59:24.961Z,6.68
2022-12-27T18:01:57.157Z,9.00
2022-12-27T18:04:42.099Z,10.02
2022-12-27T18:07:14.154Z,6.63
2022-12-27T18:10:00.156Z,4.57
2022-12-27T18:12:45.403Z,5.32
2022-12-27T18:15:19.110Z,5.53
2022-12-27T18:17:51.660Z,8.15
2022-12-27T18:20:33.988Z,5.20
2022-12-27T18:23:23.194Z,6.88
2022-12-27T18:29:16.830Z,5.82
2022-12-27T18:32:12.158Z,9.48
2022-12-27T18:34:46.627Z,10.27
2022-12-27T18:37:22.302Z,8.85
2022-12-27T18:40:11.186Z,9.93
2022-12-27T18:42:45.949Z,10.48
2022-12-27T18:45:23.963Z,13.20
2022-12-27T18:47:57.840Z,11.60
2022-12-27T18:53:02.732Z,7.20
2022-12-27T18:55:32.399Z,7.85
2022-12-27T18:58:06.964Z,6.75
2022-12-27T19:00:48.514Z,6.43
2022-12-27T19:03:19.998Z,7.85
2022-12-27T19:05:59.057Z,8.73
2022-12-27T19:08:29.055Z,9.95
2022-12-27T19:11:00.226Z,8.43
2022-12-27T19:13:30.125Z,7.75
2022-12-27T19:15:59.919Z,7.28
2022-12-27T19:18:31.610Z,7.95
2022-12-27T19:21:03.445Z,6.32
2022-12-27T19:23:33.862Z,6.53
2022-12-27T19:26:04.704Z,7.25
2022-12-27T19:28:35.994Z,7.35
2022-12-27T19:31:09.725Z,7.28
2022-12-27T19:33:39.755Z,6.43
2022-12-27T19:36:11.661Z,6.88
2022-12-27T19:38:47.560Z,6.93
2022-12-27T19:41:17.528Z,6.88
2022-12-27T19:43:46.935Z,9.20
2022-12-27T19:46:19.225Z,8.20
2022-12-27T19:49:15.920Z,5.47
2022-12-27T19:51:39.015Z,6.22
2022-12-27T19:54:12.265Z,8.60
2022-12-27T19:56:40.953Z,8.05
2022-12-27T19:59:18.551Z,6.72
2022-12-27T20:01:47.679Z,7.72
2022-12-27T20:04:18.501Z,7.13
2022-12-27T20:06:47.814Z,7.05
2022-12-27T20:09:18.066Z,9.88
2022-12-27T20:11:46.712Z,8.43
2022-12-27T20:14:17.719Z,7.80
2022-12-27T20:16:46.646Z,8.70
2022-12-27T20:19:18.035Z,7.90
2022-12-27T20:21:48.144Z,7.43
2022-12-27T20:24:16.684Z,10.95
2022-12-27T20:26:45.632Z,10.18
2022-12-27T20:29:15.398Z,6.68
2022-12-27T20:31:46.312Z,7.22
2022-12-27T20:34:15.499Z,6.40
2022-12-27T20:36:44.784Z,7.93
2022-12-27T20:39:14.892Z,6.78
2022-12-27T20:41:43.599Z,8.55
2022-12-27T20:44:12.117Z,13.07
2022-12-27T20:46:42.120Z,19.90
2022-12-27T20:49:10.762Z,28.75
2022-12-27T20:51:41.681Z,23.95
2022-12-27T20:54:15.191Z,14.20
2022-12-27T20:56:45.303Z,16.45
2022-12-27T20:59:16.097Z,12.63
2022-12-27T21:01:44.896Z,11.60
2022-12-27T21:04:13.749Z,15.70
2022-12-27T21:06:42.375Z,12.20
2022-12-27T21:09:11.022Z,11.68
2022-12-27T21:11:39.508Z,11.55
2022-12-27T21:14:09.706Z,9.43
2022-12-27T21:16:38.842Z,13.95
2022-12-27T21:19:08.179Z,11.65
2022-12-27T21:21:37.757Z,8.77
2022-12-27T21:24:07.229Z,7.45
2022-12-27T21:26:37.037Z,10.10
2022-12-27T21:29:06.434Z,7.50
2022-12-27T21:31:36.863Z,8.00
2022-12-27T21:34:08.231Z,8.48
2022-12-27T21:36:38.411Z,10.18
2022-12-27T21:39:07.982Z,9.45
2022-12-27T21:41:38.317Z,13.20
2022-12-27T21:44:08.004Z,11.30
2022-12-27T21:46:39.483Z,11.88
2022-12-27T21:49:10.389Z,12.40
2022-12-27T21:51:43.121Z,14.52
2022-12-27T21:54:14.851Z,15.80
2022-12-27T21:56:43.823Z,13.80
2022-12-27T21:59:20.243Z,14.15
2022-12-27T22:01:58.389Z,12.25
2022-12-27T22:04:37.357Z,9.38
2022-12-27T22:07:10.933Z,9.45
2022-12-27T22:09:58.760Z,10.43
2022-12-27T22:12:35.080Z,31.38
2022-12-27T22:15:18.612Z,20.48
2022-12-27T22:18:02.483Z,15.23
2022-12-27T22:20:46.901Z,12.32
2022-12-27T22:23:25.504Z,15.52
2022-12-27T22:25:59.176Z,13.07
2022-12-27T22:28:32.116Z,13.55
2022-12-27T22:31:13.544Z,10.13
2022-12-27T22:33:47.264Z,9.27
2022-12-27T22:36:37.798Z,9.88
2022-12-27T22:39:29.045Z,11.60
2022-12-27T22:42:18.729Z,13.02
2022-12-27T22:44:57.120Z,11.50
2022-12-27T22:47:50.934Z,11.35
2022-12-27T22:50:34.125Z,16.33
2022-12-27T22:53:30.088Z,21.90
2022-12-27T22:56:16.869Z,16.67
2022-12-27T22:58:57.206Z,15.90
2022-12-27T23:01:43.356Z,16.98
2022-12-27T23:04:39.974Z,14.68
2022-12-27T23:07:16.136Z,14.85
2022-12-27T23:10:10.349Z,13.07
2022-12-27T23:12:49.869Z,12.80
2022-12-27T23:15:22.667Z,11.18
2022-12-27T23:17:53.975Z,12.40
2022-12-27T23:20:23.842Z,13.30
2022-12-27T23:22:58.233Z,11.93
2022-12-27T23:25:40.770Z,9.48
2022-12-27T23:28:13.079Z,8.23
2022-12-27T23:30:46.465Z,8.80
2022-12-27T23:33:16.782Z,9.57
2022-12-27T23:35:53.977Z,32.47
2022-12-27T23:38:45.460Z,17.70
2022-12-27T23:41:26.035Z,12.32
2022-12-27T23:44:32.858Z,11.00
2022-12-27T23:47:06.914Z,11.95
2022-12-27T23:49:39.745Z,11.57
2022-12-27T23:52:08.852Z,24.02
2022-12-27T23:54:43.026Z,10.82
2022-12-27T23:57:19.894Z,10.35
2022-12-27T23:59:58.567Z,8.95
